Time;durP1;ratioP1;P1;durP2;ratioP2;P2;SDS_P1;SDS_P2;PMS_P1;PMS_P2;Temp;Humidity;BMP_temperature;BMP_pressure;BME280_temperature;BME280_humidity;BME280_pressure;Samples;Min_cycle;Max_cycle;Signal;HPM_P1;HPM_P2
2021/10/29 04:01:57;;;;;;;40.88;19.48;;;6.90;99.90;;;;;;5246954;23;20230;-69
2021/10/29 04:04:24;;;;;;;29.75;18.30;;;6.80;99.90;;;;;;4925709;29;20213;-70
2021/10/29 04:06:51;;;;;;;35.75;19.90;;;6.90;99.90;;;;;;4934239;29;20206;-69
2021/10/29 04:09:17;;;;;;;41.03;20.90;;;6.90;99.90;;;;;;4950976;29;20220;-70
2021/10/29 04:11:44;;;;;;;42.55;20.40;;;6.80;99.90;;;;;;4932083;29;20277;-70
2021/10/29 04:14:12;;;;;;;31.08;20.02;;;6.80;99.90;;;;;;4932708;29;20571;-70
2021/10/29 04:16:40;;;;;;;36.85;20.67;;;6.80;99.90;;;;;;4898643;29;20204;-72
2021/10/29 04:19:12;;;;;;;35.95;21.10;;;6.80;99.90;;;;;;4895354;29;20295;-72
2021/10/29 04:21:39;;;;;;;33.22;20.58;;;6.80;99.90;;;;;;4914591;29;20310;-72
2021/10/29 04:24:07;;;;;;;34.47;20.60;;;6.80;99.90;;;;;;4914842;29;20218;-71
2021/10/29 04:26:35;;;;;;;37.65;20.95;;;6.80;99.90;;;;;;4913502;29;20206;-72
2021/10/29 04:29:12;;;;;;;29.88;19.35;;;6.80;99.90;;;;;;4914594;29;20215;-72
2021/10/29 04:31:47;;;;;;;34.30;21.98;;;6.80;99.90;;;;;;4898651;29;20233;-72
2021/10/29 04:34:15;;;;;;;34.30;20.92;;;6.80;99.90;;;;;;4895995;29;20214;-72
2021/10/29 04:36:42;;;;;;;32.78;19.60;;;6.80;99.90;;;;;;4898347;29;20215;-72
2021/10/29 04:39:11;;;;;;;30.48;19.25;;;6.80;99.90;;;;;;4896086;29;20203;-72
2021/10/29 04:41:38;;;;;;;35.08;19.83;;;6.80;99.90;;;;;;4895922;29;20226;-72
2021/10/29 04:44:05;;;;;;;32.45;19.15;;;6.80;99.90;;;;;;4896172;29;20591;-72
2021/10/29 04:46:32;;;;;;;32.10;18.63;;;6.80;99.90;;;;;;4907473;29;20206;-72
2021/10/29 04:48:59;;;;;;;33.42;19.98;;;6.70;99.90;;;;;;4913331;29;20255;-71
2021/10/29 04:51:27;;;;;;;31.40;18.88;;;6.70;99.90;;;;;;4903387;29;20231;-71
2021/10/29 04:53:54;;;;;;;35.90;21.48;;;6.70;99.90;;;;;;4907996;29;20203;-70
2021/10/29 04:56:21;;;;;;;32.83;19.90;;;6.70;99.90;;;;;;4913791;29;20674;-71
2021/10/29 04:58:48;;;;;;;36.95;20.40;;;6.70;99.90;;;;;;4913808;29;20226;-73
2021/10/29 05:01:14;;;;;;;33.97;18.80;;;6.70;99.90;;;;;;4911947;29;20230;-71
2021/10/29 05:03:41;;;;;;;35.00;20.30;;;6.70;99.90;;;;;;4910866;29;20214;-71
2021/10/29 05:06:08;;;;;;;36.00;21.05;;;6.70;99.90;;;;;;4895622;29;20222;-72
2021/10/29 05:08:37;;;;;;;33.28;19.60;;;6.70;99.90;;;;;;4898870;29;20252;-72
2021/10/29 05:11:04;;;;;;;31.25;18.80;;;6.70;99.90;;;;;;4916823;29;20226;-72
2021/10/29 05:13:31;;;;;;;30.95;19.27;;;6.70;99.90;;;;;;4918045;29;20214;-71
2021/10/29 05:15:58;;;;;;;40.13;19.70;;;6.60;99.90;;;;;;4900195;29;20218;-72
2021/10/29 05:18:25;;;;;;;34.58;19.17;;;6.60;99.90;;;;;;4899182;29;20219;-71
2021/10/29 05:20:51;;;;;;;36.28;19.20;;;6.60;99.90;;;;;;4915567;29;20225;-71
2021/10/29 05:23:18;;;;;;;41.10;19.08;;;6.60;99.90;;;;;;4918010;29;20595;-71
2021/10/29 05:25:46;;;;;;;37.42;20.70;;;6.60;99.90;;;;;;4901502;29;20341;-71
2021/10/29 05:28:13;;;;;;;38.10;18.77;;;6.60;99.90;;;;;;4899089;29;20207;-72
2021/10/29 05:30:40;;;;;;;33.58;19.88;;;6.60;99.90;;;;;;4913263;29;20231;-71
2021/10/29 05:33:06;;;;;;;35.97;18.17;;;6.60;99.90;;;;;;4904240;29;20211;-71
2021/10/29 05:35:33;;;;;;;34.38;20.35;;;6.60;99.90;;;;;;4901231;29;20960;-72
2021/10/29 05:38:00;;;;;;;28.90;19.20;;;6.60;99.90;;;;;;4917367;29;20218;-72
2021/10/29 05:40:26;;;;;;;37.85;19.80;;;6.60;99.90;;;;;;4915115;29;20687;-71
2021/10/29 05:42:54;;;;;;;35.20;19.20;;;6.60;99.90;;;;;;4903846;29;20207;-71
2021/10/29 05:45:21;;;;;;;32.75;18.98;;;6.60;99.90;;;;;;4916060;29;20258;-71
2021/10/29 05:47:48;;;;;;;36.92;19.77;;;6.60;99.90;;;;;;4916879;29;20234;-73
2021/10/29 05:50:15;;;;;;;31.95;18.65;;;6.60;99.90;;;;;;4915585;29;20595;-71
2021/10/29 05:52:43;;;;;;;33.65;19.52;;;6.60;99.90;;;;;;4917093;29;20214;-72
2021/10/29 05:55:15;;;;;;;36.28;18.90;;;6.60;99.90;;;;;;4907412;29;20207;-72
2021/10/29 05:57:42;;;;;;;35.13;19.35;;;6.60;99.90;;;;;;4898263;29;20212;-72
2021/10/29 06:00:12;;;;;;;30.30;18.70;;;6.60;99.90;;;;;;4905705;29;20215;-72
2021/10/29 06:02:39;;;;;;;31.65;19.73;;;6.60;99.90;;;;;;4916614;29;20242;-72
2021/10/29 06:05:07;;;;;;;36.35;18.77;;;6.60;99.90;;;;;;4908259;29;20203;-71
2021/10/29 06:07:34;;;;;;;32.08;20.83;;;6.60;99.90;;;;;;4898212;29;20302;-71
2021/10/29 06:10:01;;;;;;;36.30;19.50;;;6.60;99.90;;;;;;4912739;29;20209;-72
2021/10/29 06:12:28;;;;;;;30.92;19.40;;;6.60;99.90;;;;;;4917039;29;20231;-72
2021/10/29 06:14:55;;;;;;;36.22;19.90;;;6.60;99.90;;;;;;4910140;29;20200;-73
2021/10/29 06:17:24;;;;;;;30.90;17.55;;;6.60;99.90;;;;;;4897719;29;20223;-72
2021/10/29 06:19:51;;;;;;;33.03;18.85;;;6.60;99.90;;;;;;4905474;29;20203;-73
2021/10/29 06:22:21;;;;;;;40.15;20.38;;;6.60;99.90;;;;;;4916732;29;20670;-73
2021/10/29 06:24:48;;;;;;;35.53;20.25;;;6.60;99.90;;;;;;4907713;29;20217;-72
2021/10/29 06:29:56;;;;;;;40.67;20.77;;;6.60;99.90;;;;;;4897325;29;20637;-72
2021/10/29 06:32:24;;;;;;;35.28;18.90;;;6.60;99.90;;;;;;4916582;29;20230;-73
2021/10/29 06:34:51;;;;;;;33.90;20.77;;;6.60;99.90;;;;;;4916681;29;20575;-74
2021/10/29 06:37:17;;;;;;;34.83;18.52;;;6.60;99.90;;;;;;4907217;29;20222;-74
2021/10/29 06:39:45;;;;;;;36.42;20.35;;;6.60;99.90;;;;;;4916793;29;20216;-73
2021/10/29 06:42:16;;;;;;;34.50;19.63;;;6.60;99.90;;;;;;4907574;29;20314;-73
2021/10/29 06:44:50;;;;;;;35.05;19.23;;;6.60;99.90;;;;;;4897631;29;20219;-74
2021/10/29 07:01:07;;;;;;;31.20;18.30;;;6.70;99.90;;;;;;4902681;29;20757;-74
2021/10/29 07:04:08;;;;;;;32.40;18.45;;;6.70;99.90;;;;;;4915498;29;20272;-74
2021/10/29 07:13:04;;;;;;;41.45;18.25;;;6.80;99.90;;;;;;4897445;29;20374;-74
2021/10/29 07:40:03;;;;;;;32.25;18.77;;;7.20;99.90;;;;;;4896981;29;20659;-74
2021/10/29 07:42:36;;;;;;;30.70;18.70;;;7.30;99.90;;;;;;4912884;29;20226;-73
2021/10/29 07:45:03;;;;;;;34.85;19.40;;;7.30;99.90;;;;;;4914106;29;20242;-73
2021/10/29 07:47:30;;;;;;;28.90;17.73;;;7.40;99.90;;;;;;4908219;29;20665;-73
2021/10/29 07:49:56;;;;;;;34.30;18.60;;;7.50;99.90;;;;;;4910686;29;20735;-73
2021/10/29 07:52:23;;;;;;;30.40;17.58;;;7.50;99.90;;;;;;4906102;29;20691;-73
2021/10/29 07:54:50;;;;;;;30.10;17.45;;;7.60;99.90;;;;;;4909322;29;20210;-73
2021/10/29 07:57:19;;;;;;;36.20;21.52;;;7.80;99.90;;;;;;4907139;29;20218;-74
2021/10/29 07:59:47;;;;;;;28.02;16.85;;;8.00;99.90;;;;;;4900138;29;20306;-73
2021/10/29 08:02:15;;;;;;;23.45;16.48;;;8.10;99.90;;;;;;4903045;29;20663;-74
2021/10/29 08:04:41;;;;;;;28.65;16.17;;;8.10;99.90;;;;;;4897041;29;20213;-73
2021/10/29 08:07:08;;;;;;;26.35;16.80;;;8.10;99.90;;;;;;4897000;29;20211;-74
2021/10/29 08:09:35;;;;;;;28.08;17.30;;;8.10;99.90;;;;;;4901215;29;20225;-73
2021/10/29 08:12:02;;;;;;;24.85;15.93;;;8.10;99.90;;;;;;4898801;29;20227;-74
2021/10/29 08:14:30;;;;;;;24.02;15.60;;;8.20;99.90;;;;;;4903835;29;20203;-74
2021/10/29 08:16:57;;;;;;;27.35;15.85;;;8.20;99.90;;;;;;4895680;29;20218;-74
2021/10/29 08:19:28;;;;;;;26.33;16.00;;;8.30;99.90;;;;;;4902796;29;20211;-73
2021/10/29 08:21:54;;;;;;;23.58;15.90;;;8.30;99.90;;;;;;4904833;29;20568;-73
2021/10/29 08:24:22;;;;;;;22.90;15.75;;;8.40;99.90;;;;;;4910997;29;20586;-73
2021/10/29 08:26:49;;;;;;;23.50;16.50;;;8.40;99.90;;;;;;4908375;29;20318;-73
2021/10/29 08:29:15;;;;;;;23.52;15.00;;;8.50;99.90;;;;;;4916802;29;20314;-73
2021/10/29 08:31:44;;;;;;;24.67;15.13;;;8.50;99.90;;;;;;4909437;29;20241;-73
2021/10/29 08:34:10;;;;;;;25.05;14.77;;;8.60;99.90;;;;;;4905174;29;20215;-74
2021/10/29 08:36:39;;;;;;;25.17;15.25;;;8.70;99.90;;;;;;4901067;29;20211;-74
2021/10/29 08:39:07;;;;;;;23.13;14.57;;;8.80;99.90;;;;;;4903454;29;20210;-73
2021/10/29 08:41:34;;;;;;;25.60;16.15;;;8.90;99.90;;;;;;4907328;29;20227;-73
2021/10/29 08:44:01;;;;;;;24.95;15.40;;;8.90;99.90;;;;;;4913766;29;20209;-73
2021/10/29 08:46:28;;;;;;;20.15;14.48;;;9.00;99.90;;;;;;4926288;29;20556;-74
2021/10/29 08:48:58;;;;;;;25.50;15.32;;;9.10;99.90;;;;;;4895316;29;20203;-74
2021/10/29 08:51:24;;;;;;;21.77;14.90;;;9.10;99.90;;;;;;4895637;29;20513;-74
2021/10/29 08:53:52;;;;;;;23.05;14.07;;;9.20;99.90;;;;;;4901557;29;20289;-73
2021/10/29 08:56:19;;;;;;;23.83;15.10;;;9.30;99.90;;;;;;4897256;29;20223;-73
2021/10/29 08:59:06;;;;;;;20.60;12.95;;;9.40;99.90;;;;;;4905537;29;20669;-74
2021/10/29 09:01:48;;;;;;;25.35;15.38;;;9.50;99.90;;;;;;4909043;29;20226;-74
2021/10/29 09:04:18;;;;;;;21.98;15.25;;;9.60;99.90;;;;;;4903675;29;20211;-73
2021/10/29 09:06:53;;;;;;;18.77;12.95;;;9.60;99.90;;;;;;4915056;29;20203;-73
2021/10/29 09:09:34;;;;;;;18.02;12.50;;;9.70;99.90;;;;;;4900082;29;20261;-72
2021/10/29 09:15:57;;;;;;;14.82;11.40;;;9.90;99.90;;;;;;4918121;29;20337;-73
2021/10/29 09:31:27;;;;;;;17.52;11.95;;;10.60;99.90;;;;;;4894712;29;20719;-73
2021/10/29 09:33:57;;;;;;;18.38;13.30;;;10.60;99.90;;;;;;4895074;29;20321;-72
2021/10/29 09:36:30;;;;;;;15.15;10.40;;;10.70;99.90;;;;;;4894150;29;20215;-72
2021/10/29 09:39:04;;;;;;;15.10;10.23;;;10.80;99.90;;;;;;4903365;29;20259;-73
2021/10/29 09:41:30;;;;;;;14.27;10.50;;;10.90;99.90;;;;;;4898479;29;20314;-73
2021/10/29 09:44:00;;;;;;;14.38;10.10;;;11.00;99.90;;;;;;4908091;29;20206;-72
2021/10/29 09:46:38;;;;;;;13.02;9.95;;;11.10;99.90;;;;;;4908177;29;20259;-72
2021/10/29 09:49:11;;;;;;;12.02;9.98;;;11.30;99.90;;;;;;4897246;29;20294;-72
2021/10/29 09:51:50;;;;;;;12.43;9.63;;;11.40;99.90;;;;;;4896847;29;20238;-72
2021/10/29 09:54:19;;;;;;;10.27;7.97;;;11.50;99.90;;;;;;4911611;29;20250;-72
2021/10/29 09:56:53;;;;;;;10.95;8.82;;;11.60;99.90;;;;;;4917656;29;20218;-73
2021/10/29 09:59:19;;;;;;;11.45;8.57;;;11.70;99.90;;;;;;4917132;29;20334;-72
2021/10/29 10:01:46;;;;;;;11.60;8.60;;;11.80;99.90;;;;;;4916541;29;20340;-72
2021/10/29 10:04:14;;;;;;;12.15;7.72;;;11.80;99.90;;;;;;4916931;29;20207;-74
2021/10/29 10:06:42;;;;;;;9.32;8.15;;;12.00;99.90;;;;;;4916920;29;20221;-71
2021/10/29 10:09:09;;;;;;;10.35;8.60;;;12.10;99.90;;;;;;4917040;29;20236;-72
2021/10/29 10:11:38;;;;;;;8.98;8.25;;;12.10;99.90;;;;;;4916626;29;20763;-72
2021/10/29 10:14:09;;;;;;;13.05;8.85;;;12.20;99.90;;;;;;4917314;29;20210;-72
2021/10/29 10:16:38;;;;;;;12.13;10.35;;;12.30;99.90;;;;;;4944514;23;20237;-71
2021/10/29 10:19:05;;;;;;;9.60;8.20;;;12.40;99.90;;;;;;4953729;29;20208;-71
2021/10/29 10:21:38;;;;;;;11.03;8.57;;;12.40;99.90;;;;;;4953992;29;20468;-71
2021/10/29 10:24:10;;;;;;;9.23;8.32;;;12.50;99.90;;;;;;4954683;28;20930;-71
2021/10/29 10:29:30;;;;;;;12.30;8.13;;;12.70;99.90;;;;;;4971456;28;20544;-71
2021/10/29 10:40:43;;;;;;;7.13;6.33;;;13.00;99.90;;;;;;4954681;29;20929;-71
2021/10/29 10:43:22;;;;;;;7.17;6.30;;;13.00;99.90;;;;;;4947669;28;20918;-71
2021/10/29 10:45:56;;;;;;;7.00;6.30;;;13.10;99.90;;;;;;4947614;29;20839;-71
2021/10/29 10:48:25;;;;;;;7.73;7.03;;;13.10;99.90;;;;;;4953978;28;20464;-71
2021/10/29 10:50:57;;;;;;;5.90;5.40;;;13.30;99.90;;;;;;4950572;28;20492;-71
2021/10/29 10:53:39;;;;;;;6.90;5.87;;;13.40;99.90;;;;;;4954658;29;20480;-72
2021/10/29 10:56:30;;;;;;;5.90;5.40;;;13.50;99.90;;;;;;4954768;29;20579;-71
2021/10/29 10:59:31;;;;;;;5.60;5.20;;;13.60;99.90;;;;;;4953940;28;20472;-71
2021/10/29 11:02:37;;;;;;;6.00;5.50;;;13.70;99.90;;;;;;4953889;28;20482;-71
2021/10/29 11:05:25;;;;;;;5.97;5.50;;;13.70;99.90;;;;;;4953428;28;20576;-71
2021/10/29 11:10:35;;;;;;;7.10;5.40;;;13.90;99.90;;;;;;4954098;28;20741;-71
2021/10/29 11:13:11;;;;;;;4.93;4.53;;;13.90;99.90;;;;;;4954104;28;20492;-71
2021/10/29 11:15:39;;;;;;;5.57;5.07;;;14.00;99.90;;;;;;4953291;28;21031;-71
2021/10/29 11:18:31;;;;;;;4.80;4.40;;;14.10;99.90;;;;;;4953809;28;20503;-71
2021/10/29 11:21:19;;;;;;;4.30;4.00;;;14.20;99.90;;;;;;4953386;28;20465;-71
2021/10/29 11:23:55;;;;;;;5.73;5.23;;;14.30;99.90;;;;;;4946755;29;20460;-71
2021/10/29 11:26:25;;;;;;;4.70;4.30;;;14.40;99.90;;;;;;4953303;28;21069;-71
2021/10/29 11:28:54;;;;;;;4.80;4.50;;;14.40;99.90;;;;;;4953796;29;20496;-71
2021/10/29 11:31:25;;;;;;;7.77;4.87;;;14.40;99.90;;;;;;4953166;29;20504;-71
2021/10/29 11:33:54;;;;;;;6.43;4.50;;;14.50;99.90;;;;;;4953164;29;20488;-71
2021/10/29 11:36:24;;;;;;;4.93;4.63;;;14.50;99.90;;;;;;4953538;28;20496;-71
2021/10/29 11:38:51;;;;;;;6.00;5.50;;;14.60;99.90;;;;;;4953347;28;20465;-71
2021/10/29 11:41:21;;;;;;;7.13;5.90;;;14.70;99.90;;;;;;4953734;28;20476;-71
2021/10/29 11:43:49;;;;;;;7.40;5.77;;;14.70;99.90;;;;;;4953383;28;20906;-71
2021/10/29 11:46:18;;;;;;;6.60;6.00;;;14.70;99.90;;;;;;4952829;28;20496;-70
2021/10/29 11:48:55;;;;;;;5.27;4.80;;;14.80;99.90;;;;;;4952765;28;20532;-71
2021/10/29 11:51:24;;;;;;;6.30;5.27;;;14.80;99.90;;;;;;4953132;28;20471;-71
2021/10/29 11:53:55;;;;;;;6.80;6.20;;;14.90;99.90;;;;;;4950965;28;20475;-71
2021/10/29 11:56:30;;;;;;;4.90;4.50;;;14.90;99.90;;;;;;4953178;28;20540;-71
2021/10/29 11:59:10;;;;;;;4.83;4.43;;;15.00;99.90;;;;;;4952954;28;20468;-71
2021/10/29 12:01:51;;;;;;;5.30;4.80;;;14.90;99.90;;;;;;4952895;28;20465;-71
2021/10/29 12:07:15;;;;;;;4.60;4.20;;;15.00;99.90;;;;;;4953397;29;20475;-71
2021/10/29 12:09:42;;;;;;;4.00;3.70;;;15.20;99.90;;;;;;4952902;28;21010;-71
2021/10/29 12:12:11;;;;;;;4.67;4.37;;;15.20;99.90;;;;;;4952844;28;20500;-71
2021/10/29 12:14:40;;;;;;;3.90;3.60;;;15.10;99.90;;;;;;4952877;28;20496;-71
2021/10/29 12:17:15;;;;;;;8.40;4.03;;;15.10;99.90;;;;;;4951908;28;20499;-70
2021/10/29 12:19:45;;;;;;;3.57;3.37;;;15.20;99.90;;;;;;4952564;28;20785;-70
2021/10/29 12:24:57;;;;;;;4.57;4.20;;;15.20;99.90;;;;;;4950754;28;20456;-70
2021/10/29 12:27:28;;;;;;;4.93;4.43;;;15.20;99.90;;;;;;4952631;28;20508;-70
2021/10/29 12:30:30;;;;;;;4.83;4.27;;;15.30;99.90;;;;;;4952492;28;20452;-71
2021/10/29 12:51:49;;;;;;;3.80;3.50;;;15.10;99.90;;;;;;4952103;29;20529;-71
2021/10/29 12:53:18;;;;;;;4.83;3.70;;;15.30;99.90;;;;;;4952477;29;20586;-71
2021/10/29 13:01:32;;;;;;;3.53;3.33;;;15.30;99.90;;;;;;4919386;28;20455;-71
2021/10/29 13:04:01;;;;;;;3.63;3.43;;;15.40;99.90;;;;;;4951859;28;20552;-71
2021/10/29 13:06:35;;;;;;;4.97;4.50;;;15.40;99.90;;;;;;4952250;28;20480;-71
2021/10/29 13:09:11;;;;;;;4.20;3.90;;;15.40;99.90;;;;;;4952388;28;20635;-71
2021/10/29 13:11:43;;;;;;;3.93;3.47;;;15.50;99.90;;;;;;4952196;28;20444;-71
2021/10/29 13:14:12;;;;;;;4.10;3.83;;;15.50;99.90;;;;;;4952113;28;20457;-71
2021/10/29 13:16:38;;;;;;;3.40;3.20;;;15.60;99.90;;;;;;4951472;28;20523;-71
2021/10/29 13:28:11;;;;;;;3.70;3.53;;;15.70;99.90;;;;;;4932681;29;20564;-71
2021/10/29 13:36:26;;;;;;;3.80;3.50;;;15.80;99.90;;;;;;4936566;29;20476;-71
2021/10/29 13:52:55;;;;;;;2.77;2.47;;;15.90;99.90;;;;;;4938740;29;20527;-71
2021/10/29 13:55:37;;;;;;;3.53;3.10;;;15.90;99.90;;;;;;4955148;28;20556;-71
2021/10/29 13:58:25;;;;;;;2.50;2.40;;;15.80;99.90;;;;;;4954910;28;20468;-71
2021/10/29 14:03:52;;;;;;;2.27;2.17;;;15.80;99.90;;;;;;4954852;28;20459;-70
2021/10/29 14:28:40;;;;;;;4.37;4.00;;;15.50;99.90;;;;;;4949823;29;20447;-70
2021/10/29 14:31:14;;;;;;;2.97;2.77;;;15.50;99.90;;;;;;4946024;28;20472;-71
2021/10/29 14:33:47;;;;;;;3.27;3.00;;;15.50;99.90;;;;;;4944708;29;20511;-71
2021/10/29 14:36:14;;;;;;;3.30;2.20;;;15.50;99.90;;;;;;4939867;28;20492;-70
2021/10/29 14:38:51;;;;;;;2.43;2.33;;;15.50;99.90;;;;;;4935710;29;20861;-70
2021/10/29 14:41:22;;;;;;;4.10;2.57;;;15.40;99.90;;;;;;4935974;29;20457;-71
2021/10/29 14:43:53;;;;;;;3.03;2.83;;;15.40;99.90;;;;;;4943355;28;20462;-71
2021/10/29 14:46:31;;;;;;;3.23;3.13;;;15.40;99.90;;;;;;4935755;29;20858;-71
2021/10/29 14:49:04;;;;;;;4.73;3.13;;;15.30;99.90;;;;;;4935428;29;20506;-71
2021/10/29 14:51:58;;;;;;;3.97;3.13;;;15.20;99.90;;;;;;4939339;29;20547;-71
2021/10/29 15:02:53;;;;;;;3.13;2.93;;;15.00;99.90;;;;;;4941968;28;20456;-71
2021/10/29 15:27:31;;;;;;;5.23;4.73;;;14.50;99.90;;;;;;4952619;28;20501;-72
2021/10/29 15:30:02;;;;;;;5.97;5.47;;;14.50;99.90;;;;;;4941798;28;20549;-72
2021/10/29 15:32:43;;;;;;;5.93;5.53;;;14.40;99.90;;;;;;4954079;28;20487;-71
2021/10/29 15:41:11;;;;;;;6.23;5.63;;;14.20;99.90;;;;;;4954242;28;20502;-71
2021/10/29 15:43:51;;;;;;;5.97;5.47;;;14.10;99.90;;;;;;4954686;28;20547;-71
2021/10/29 15:46:21;;;;;;;6.30;5.67;;;14.00;99.90;;;;;;4953469;28;20493;-71
2021/10/29 15:48:53;;;;;;;6.17;5.67;;;14.00;99.90;;;;;;4951465;28;20488;-71
2021/10/29 15:51:21;;;;;;;8.97;5.83;;;14.00;99.90;;;;;;4952985;28;20496;-71
2021/10/29 15:53:48;;;;;;;7.43;6.73;;;13.90;99.90;;;;;;4938309;28;21048;-71
2021/10/29 15:56:23;;;;;;;5.77;5.37;;;13.90;99.90;;;;;;4946544;28;20517;-71
2021/10/29 15:58:57;;;;;;;6.90;6.20;;;13.80;99.90;;;;;;4944327;28;20504;-71
2021/10/29 16:01:26;;;;;;;6.13;5.17;;;13.80;99.90;;;;;;4951231;28;20561;-71
2021/10/29 16:16:58;;;;;;;6.33;5.83;;;13.90;99.90;;;;;;4939597;28;20855;-72
2021/10/29 16:17:48;;;;;;;5.53;5.03;;;13.70;99.90;;;;;;4940922;28;20855;-71
2021/10/29 16:20:16;;;;;;;5.80;5.00;;;13.60;99.90;;;;;;4952102;28;20554;-71
2021/10/29 16:22:43;;;;;;;6.20;5.60;;;13.60;99.90;;;;;;4946085;28;21238;-71
2021/10/29 16:25:12;;;;;;;10.33;5.93;;;13.50;99.90;;;;;;4942515;28;20477;-71
2021/10/29 16:27:47;;;;;;;6.33;5.30;;;13.60;99.90;;;;;;4946010;28;20484;-71
2021/10/29 16:30:15;;;;;;;6.72;5.75;;;13.50;99.90;;;;;;4939985;28;20628;-71
2021/10/29 16:35:35;;;;;;;6.10;5.30;;;13.40;99.90;;;;;;4940835;28;20505;-71
2021/10/29 16:38:02;;;;;;;5.67;5.17;;;13.30;99.90;;;;;;4937282;28;20469;-71
2021/10/29 16:40:29;;;;;;;5.90;5.03;;;13.30;99.90;;;;;;4938003;28;20552;-71
2021/10/29 16:42:56;;;;;;;6.20;5.57;;;13.30;99.90;;;;;;4954671;28;20960;-71
2021/10/29 16:45:24;;;;;;;6.50;5.90;;;13.20;99.90;;;;;;4944694;28;20228;-71
2021/10/29 16:47:51;;;;;;;6.07;5.57;;;13.20;99.90;;;;;;4940215;28;20497;-71
2021/10/29 16:50:20;;;;;;;6.10;5.60;;;13.20;99.90;;;;;;4943121;28;20524;-71
2021/10/29 16:52:49;;;;;;;5.43;5.23;;;13.20;99.90;;;;;;4943930;28;20491;-71
2021/10/29 16:55:16;;;;;;;5.43;4.93;;;13.20;99.90;;;;;;4943556;28;20469;-71
2021/10/29 16:57:43;;;;;;;7.00;5.30;;;13.20;99.90;;;;;;4950847;28;20489;-71
2021/10/29 17:00:12;;;;;;;9.53;5.97;;;13.20;99.90;;;;;;4939496;28;20469;-71
2021/10/29 17:02:40;;;;;;;5.57;5.03;;;13.10;99.90;;;;;;4947277;28;20472;-71
2021/10/29 17:05:08;;;;;;;4.95;4.65;;;13.10;99.90;;;;;;4951506;28;20491;-71
2021/10/29 17:07:35;;;;;;;6.75;5.15;;;13.00;99.90;;;;;;4941959;28;20387;-71
2021/10/29 17:10:07;;;;;;;5.72;5.32;;;13.00;99.90;;;;;;4939611;28;20210;-71
2021/10/29 17:12:34;;;;;;;6.63;4.75;;;13.00;99.90;;;;;;4948543;28;20208;-71
2021/10/29 17:15:01;;;;;;;5.18;4.68;;;13.00;99.90;;;;;;4955385;28;20208;-71
2021/10/29 17:17:28;;;;;;;5.15;4.63;;;13.10;99.90;;;;;;4949070;28;21021;-70
2021/10/29 17:19:55;;;;;;;5.43;4.93;;;13.10;99.90;;;;;;4943670;28;20225;-72
2021/10/29 17:22:21;;;;;;;9.17;6.20;;;13.00;99.90;;;;;;4953769;28;20242;-71
2021/10/29 17:24:48;;;;;;;6.18;5.22;;;13.00;99.90;;;;;;4942985;28;20497;-72
2021/10/29 17:27:16;;;;;;;7.97;7.27;;;13.00;99.90;;;;;;4936888;28;20234;-71
2021/10/29 17:29:43;;;;;;;7.50;6.72;;;13.00;99.90;;;;;;4949199;28;20550;-71
2021/10/29 17:32:12;;;;;;;6.55;5.85;;;12.90;99.90;;;;;;4950301;28;20557;-71
2021/10/29 17:34:39;;;;;;;6.80;6.30;;;12.90;99.90;;;;;;4953572;28;20230;-71
2021/10/29 17:37:06;;;;;;;7.28;5.78;;;12.90;99.90;;;;;;4940355;28;20233;-71
2021/10/29 17:39:33;;;;;;;6.35;5.75;;;12.80;99.90;;;;;;4947181;28;20206;-71
2021/10/29 17:42:01;;;;;;;6.47;6.05;;;12.80;99.90;;;;;;4951998;28;20763;-71
2021/10/29 17:44:31;;;;;;;6.47;5.88;;;12.80;99.90;;;;;;4942487;28;20328;-71
2021/10/29 17:46:58;;;;;;;6.03;5.43;;;12.80;99.90;;;;;;4944063;28;20653;-71
2021/10/29 17:49:25;;;;;;;6.47;5.97;;;12.70;99.90;;;;;;4941185;28;20217;-72
2021/10/29 17:51:53;;;;;;;6.40;5.85;;;12.70;99.90;;;;;;4939925;28;20261;-71
2021/10/29 17:54:20;;;;;;;8.03;5.83;;;12.70;99.90;;;;;;4955963;28;20297;-72
2021/10/29 17:56:47;;;;;;;6.70;6.10;;;12.80;99.90;;;;;;4936720;28;20881;-70
2021/10/29 17:59:14;;;;;;;6.65;6.05;;;12.70;99.90;;;;;;4938192;28;20562;-70
2021/10/29 18:01:42;;;;;;;6.68;6.07;;;12.60;99.90;;;;;;4950149;28;20215;-71
2021/10/29 18:04:09;;;;;;;8.35;7.10;;;12.60;99.90;;;;;;4941673;28;20260;-71
2021/10/29 18:06:35;;;;;;;7.00;6.00;;;12.60;99.90;;;;;;4947948;28;20748;-71
2021/10/29 18:09:07;;;;;;;9.85;7.07;;;12.60;99.90;;;;;;4943654;28;20289;-71
2021/10/29 18:11:35;;;;;;;7.30;6.60;;;12.50;99.90;;;;;;4952863;28;20245;-71
2021/10/29 18:14:02;;;;;;;8.07;6.82;;;12.50;99.90;;;;;;4958273;28;20289;-71
2021/10/29 18:16:31;;;;;;;9.80;6.80;;;12.50;99.90;;;;;;4935460;28;20243;-71
2021/10/29 18:18:59;;;;;;;7.78;7.07;;;12.50;99.90;;;;;;4954266;28;20205;-71
2021/10/29 18:21:26;;;;;;;10.48;7.28;;;12.40;99.90;;;;;;4958168;28;20963;-70
2021/10/29 18:23:54;;;;;;;11.45;7.28;;;12.40;99.90;;;;;;4948266;28;20229;-71
2021/10/29 18:26:21;;;;;;;8.27;7.57;;;12.40;99.90;;;;;;4944798;28;20234;-71
2021/10/29 18:28:50;;;;;;;7.40;6.78;;;12.30;99.90;;;;;;4953628;28;20393;-72
2021/10/29 18:31:17;;;;;;;8.00;7.30;;;12.30;99.90;;;;;;4944410;28;20687;-70
2021/10/29 18:33:43;;;;;;;9.43;7.50;;;12.30;99.90;;;;;;4941007;28;20739;-71
2021/10/29 18:36:12;;;;;;;7.80;6.88;;;12.30;99.90;;;;;;4948097;28;20248;-71
2021/10/29 18:38:39;;;;;;;8.23;7.45;;;12.20;99.90;;;;;;4944755;28;20227;-71
2021/10/29 18:41:06;;;;;;;9.05;7.10;;;12.20;99.90;;;;;;4944123;28;20221;-71
2021/10/29 18:43:32;;;;;;;8.75;7.90;;;12.20;99.90;;;;;;4952605;28;20212;-71
2021/10/29 18:45:59;;;;;;;8.85;6.93;;;12.10;99.90;;;;;;4942058;28;20241;-71
2021/10/29 18:48:26;;;;;;;11.52;8.13;;;12.10;99.90;;;;;;4935148;28;20811;-70
2021/10/29 18:50:53;;;;;;;10.18;8.15;;;12.10;99.90;;;;;;4953175;28;20223;-71
2021/10/29 18:53:21;;;;;;;10.25;9.13;;;12.10;99.90;;;;;;4972174;28;20465;-70
2021/10/29 18:55:47;;;;;;;11.48;9.25;;;12.10;99.90;;;;;;4934681;29;20210;-70
2021/10/29 18:58:14;;;;;;;11.55;9.27;;;12.00;99.90;;;;;;4943562;28;20209;-71
2021/10/29 19:00:41;;;;;;;11.20;9.90;;;12.00;99.90;;;;;;4942189;28;20210;-71
2021/10/29 19:03:08;;;;;;;11.93;10.05;;;11.90;99.90;;;;;;4935633;28;20229;-71
2021/10/29 19:05:35;;;;;;;9.40;8.50;;;11.90;99.90;;;;;;4934925;28;20224;-71
2021/10/29 19:08:03;;;;;;;10.27;9.27;;;11.90;99.90;;;;;;4950860;28;20205;-71
2021/10/29 19:10:32;;;;;;;11.68;9.73;;;11.80;99.90;;;;;;4940772;28;20234;-71
2021/10/29 19:13:00;;;;;;;10.43;9.32;;;11.80;99.90;;;;;;4934989;29;20210;-71
2021/10/29 19:15:27;;;;;;;11.93;10.57;;;11.70;99.90;;;;;;4946432;29;20602;-71
2021/10/29 19:17:54;;;;;;;12.40;9.10;;;11.70;99.90;;;;;;4939697;29;20380;-71
2021/10/29 19:20:21;;;;;;;13.48;10.70;;;11.70;99.90;;;;;;4944713;29;20658;-71
2021/10/29 19:22:47;;;;;;;13.93;10.85;;;11.60;99.90;;;;;;4953013;29;20211;-71
2021/10/29 19:25:14;;;;;;;16.58;11.77;;;11.60;99.90;;;;;;4952015;28;20205;-71
2021/10/29 19:27:42;;;;;;;14.18;10.32;;;11.60;99.90;;;;;;4950675;28;20233;-71
2021/10/29 19:30:10;;;;;;;11.73;9.82;;;11.60;99.90;;;;;;4951477;29;20213;-71
2021/10/29 19:32:36;;;;;;;13.32;10.88;;;11.60;99.90;;;;;;4953230;28;20209;-71
2021/10/29 19:35:08;;;;;;;12.30;10.57;;;11.60;99.90;;;;;;4946593;29;20317;-71
2021/10/29 19:37:39;;;;;;;13.70;10.23;;;11.50;99.90;;;;;;4937014;29;20316;-71
2021/10/29 19:40:11;;;;;;;13.93;10.70;;;11.50;99.90;;;;;;4950141;29;20252;-71
2021/10/29 19:42:38;;;;;;;14.90;10.60;;;11.50;99.90;;;;;;4934547;29;20216;-71
2021/10/29 19:45:07;;;;;;;12.07;10.55;;;11.50;99.90;;;;;;4940217;29;20205;-71
2021/10/29 19:47:34;;;;;;;13.57;10.80;;;11.50;99.90;;;;;;4951386;29;20571;-71
2021/10/29 19:50:02;;;;;;;14.70;10.57;;;11.40;99.90;;;;;;4952007;28;20212;-72
2021/10/29 19:52:28;;;;;;;15.98;11.45;;;11.40;99.90;;;;;;4953054;29;20623;-72
2021/10/29 19:54:59;;;;;;;15.40;12.65;;;11.30;99.90;;;;;;4952196;29;20229;-72
2021/10/29 19:57:37;;;;;;;14.40;12.32;;;11.30;99.90;;;;;;4950452;29;20228;-72
2021/10/29 20:00:08;;;;;;;15.57;12.55;;;11.30;99.90;;;;;;4935060;29;20206;-71
2021/10/29 20:02:35;;;;;;;18.85;11.90;;;11.30;99.90;;;;;;4952763;29;20280;-71
2021/10/29 20:05:02;;;;;;;17.75;11.98;;;11.20;99.90;;;;;;4938151;29;20212;-71
2021/10/29 20:07:29;;;;;;;16.73;11.90;;;11.20;99.90;;;;;;4953456;29;20225;-71
2021/10/29 20:09:56;;;;;;;12.88;11.32;;;11.20;99.90;;;;;;4951257;29;20214;-71
2021/10/29 20:12:23;;;;;;;15.38;11.77;;;11.10;99.90;;;;;;4935271;29;20206;-72
2021/10/29 20:14:49;;;;;;;16.90;11.60;;;11.10;99.90;;;;;;4948658;29;20239;-71
2021/10/29 20:17:18;;;;;;;15.48;13.05;;;11.00;99.90;;;;;;4951465;29;20721;-72
2021/10/29 20:19:44;;;;;;;15.00;12.60;;;11.00;99.90;;;;;;4950182;29;20198;-71
2021/10/29 20:22:12;;;;;;;19.05;13.15;;;10.90;99.90;;;;;;4953183;29;20228;-72
2021/10/29 20:24:39;;;;;;;20.95;13.55;;;10.90;99.90;;;;;;4939855;29;20206;-72
2021/10/29 20:27:06;;;;;;;16.98;13.57;;;10.90;99.90;;;;;;4933799;29;20232;-71